Kansai — JD3272 — position and weather

sailwx.info

Track history (hours):
 
Tides and Currents Weather Stations Pressure Air Temp Water Temp Dewpoint Dewpoint Depression Visibility Wind Speed Wind Dir Waves Ship Positions

Kansai

Last reported at 2017-Jun-26 20:45 UTC. Time now 2017-Jun-28 16:02 UTC.
Position N 33°57' E 134°59'.

Length 73 m; draft 4.2 m.

Type: Cargo ship. MMSI: 431003134.

Date/timePositionNaut miles runAvg speedWind from/ knotsBaromVisibWave heightAir tempDewpointWater temp
2017-Jun-26 20:45N 33°57' E 134°59'411.4
2017-Jun-26 20:25N 34°01' E 134°59'511.2
2017-Jun-26 19:59N 34°06' E 134°58'611.7
2017-Jun-26 19:30N 34°12' E 134°58'912.2
2017-Jun-26 18:44N 34°21' E 134°60'310.5
2017-Jun-26 18:30N 34°23' E 135°00'611.8
2017-Jun-26 18:00N 34°29' E 135°02'611.2
2017-Jun-26 17:30N 34°34' E 135°04'710.6
2017-Jun-26 16:49N 34°36' E 134°56'612.1
2017-Jun-26 16:18N 34°40' E 134°50'6 0.2
2017-Jun-25 05:18N 34°37' E 134°56'4 9.5
2017-Jun-25 04:50N 34°37' E 135°01'2 7.6
2017-Jun-25 04:30N 34°36' E 135°04'5 9.2
2017-Jun-25 03:59N 34°31' E 135°04'33 0.6
2017-Jun-23 00:49N 33°59' E 135°00'411.3
2017-Jun-23 00:27N 34°03' E 135°00'510.9
2017-Jun-23 00:00N 34°08' E 134°59'510.4
2017-Jun-22 23:30N 34°13' E 134°59'1010.2
2017-Jun-22 22:32N 34°23' E 135°00'0 9.9
2017-Jun-22 22:29N 34°23' E 135°00'5 9.6
2017-Jun-22 22:00N 34°28' E 135°01'5 9.4
2017-Jun-22 21:28N 34°33' E 135°03'4 7.7
2017-Jun-22 21:00N 34°36' E 135°02'6 8.5
2017-Jun-22 20:20N 34°37' E 134°55'3 9.5
2017-Jun-22 19:59N 34°39' E 134°52'3 0.3
2017-Jun-22 09:00N 34°41' E 134°49'712.9
2017-Jun-22 08:29N 34°37' E 134°56'714.2
2017-Jun-22 08:00N 34°36' E 135°04'612.5
2017-Jun-22 07:30N 34°37' E 135°12'612.1
2017-Jun-22 07:00N 34°38' E 135°19'511.2
2017-Jun-22 06:30N 34°37' E 135°26'0 0.2
2017-Jun-22 06:00N 34°37' E 135°26'0 0.0
2017-Jun-22 05:31N 34°37' E 135°26'0 0.0
2017-Jun-22 05:00N 34°37' E 135°26'0 0.0
2017-Jun-22 04:30N 34°37' E 135°26'0 0.0
2017-Jun-22 04:01N 34°37' E 135°26'0 0.0
2017-Jun-22 03:31N 34°37' E 135°26'0 0.0
2017-Jun-22 03:01N 34°37' E 135°26'0 0.0
2017-Jun-22 02:30N 34°37' E 135°26'0 0.1
2017-Jun-22 02:00N 34°37' E 135°26'0 0.0
2017-Jun-22 01:31N 34°37' E 135°26'0 0.0
2017-Jun-22 01:01N 34°37' E 135°26'0 0.0
2017-Jun-22 00:30N 34°37' E 135°26'0 0.0
2017-Jun-22 00:01N 34°37' E 135°26'0 0.0
2017-Jun-21 23:30N 34°37' E 135°26'0 0.0
2017-Jun-21 22:57N 34°37' E 135°26'0 0.2
2017-Jun-21 22:31N 34°37' E 135°26'1 1.5
2017-Jun-21 22:01N 34°37' E 135°25'4 7.4
2017-Jun-21 21:30N 34°40' E 135°21'3 5.9
2017-Jun-21 21:00N 34°42' E 135°24'0 0.0
2017-Jun-21 20:30N 34°42' E 135°24'0 0.0
2017-Jun-21 20:00N 34°42' E 135°24'0 0.0
2017-Jun-21 19:30N 34°42' E 135°24'0 0.0
2017-Jun-21 18:59N 34°42' E 135°24'0 0.0
2017-Jun-21 18:29N 34°42' E 135°24'0 0.0
2017-Jun-21 18:00N 34°42' E 135°24'0 0.0
2017-Jun-21 17:30N 34°42' E 135°24'0 0.0
2017-Jun-21 17:00N 34°42' E 135°24'0 0.0
2017-Jun-21 16:30N 34°42' E 135°24'0 0.0
2017-Jun-21 16:00N 34°42' E 135°24'0 0.1
2017-Jun-21 15:30N 34°42' E 135°24'0 0.0
2017-Jun-21 15:00N 34°42' E 135°24'0 0.1
2017-Jun-21 14:30N 34°42' E 135°24'0 0.0
2017-Jun-21 13:30N 34°42' E 135°24'0 0.0
2017-Jun-21 13:00N 34°42' E 135°24'0 0.0
2017-Jun-21 12:30N 34°42' E 135°24'0 0.0
2017-Jun-21 12:00N 34°42' E 135°24'0 0.0
2017-Jun-21 11:30N 34°42' E 135°24'0 0.1
2017-Jun-21 11:00N 34°42' E 135°24'0 0.1
2017-Jun-21 10:30N 34°42' E 135°24'0 0.1
2017-Jun-21 10:00N 34°42' E 135°24'0 0.1
2017-Jun-21 09:30N 34°42' E 135°24'0 0.1
2017-Jun-21 09:00N 34°42' E 135°24'0 0.1
2017-Jun-21 08:28N 34°42' E 135°24'0 0.0
2017-Jun-21 08:00N 34°42' E 135°24'0 0.0
2017-Jun-21 07:30N 34°42' E 135°24'0 0.0
2017-Jun-21 06:53N 34°42' E 135°24'0 0.0
2017-Jun-21 06:30N 34°42' E 135°24'0 0.0
2017-Jun-21 05:59N 34°42' E 135°24'0 0.0
2017-Jun-21 05:30N 34°42' E 135°24'0 0.0
2017-Jun-21 05:00N 34°42' E 135°24'0 0.1
2017-Jun-21 04:30N 34°42' E 135°24'0 0.1
2017-Jun-21 04:00N 34°42' E 135°24'0 0.0
2017-Jun-21 03:30N 34°42' E 135°24'0 0.0
2017-Jun-21 03:00N 34°42' E 135°24'0 0.0
2017-Jun-21 02:30N 34°42' E 135°24'0 0.1
2017-Jun-21 02:00N 34°42' E 135°24'0 0.1
2017-Jun-21 01:30N 34°42' E 135°24'0 0.0
2017-Jun-21 01:00N 34°42' E 135°24'0 0.0
2017-Jun-21 00:30N 34°42' E 135°24'0 0.0
2017-Jun-21 00:00N 34°42' E 135°24'0 0.0
2017-Jun-20 23:30N 34°42' E 135°24'0 0.1
2017-Jun-20 23:00N 34°42' E 135°24'0 0.0
2017-Jun-20 22:30N 34°42' E 135°24'0 0.1
2017-Jun-20 22:00N 34°42' E 135°24'0 0.0
2017-Jun-20 21:30N 34°42' E 135°24'0 0.0
2017-Jun-20 21:00N 34°42' E 135°24'0 0.1
2017-Jun-20 20:30N 34°42' E 135°24'0 0.1
2017-Jun-20 20:00N 34°42' E 135°24'0 0.0
2017-Jun-20 19:30N 34°42' E 135°24'0 0.0
2017-Jun-20 19:00N 34°42' E 135°24'0 0.0
2017-Jun-20 18:30N 34°42' E 135°24'0 0.0
2017-Jun-20 18:00N 34°42' E 135°24'0 0.0
2017-Jun-20 17:30N 34°42' E 135°24'0 0.0
2017-Jun-20 17:00N 34°42' E 135°24'0 0.0
2017-Jun-20 16:30N 34°42' E 135°24'0 0.0
2017-Jun-20 16:00N 34°42' E 135°24'0 0.0
2017-Jun-20 15:30N 34°42' E 135°24'0 0.0
2017-Jun-20 15:00N 34°42' E 135°24'0 0.0
2017-Jun-20 14:00N 34°42' E 135°24'0 0.0
2017-Jun-20 13:27N 34°42' E 135°24'0 0.0
2017-Jun-20 13:00N 34°42' E 135°24'0 0.0
2017-Jun-20 12:29N 34°42' E 135°24'0 0.0
2017-Jun-20 12:00N 34°42' E 135°24'0 0.0
2017-Jun-20 11:29N 34°42' E 135°24'0 0.0
2017-Jun-20 10:59N 34°42' E 135°24'0 0.0
2017-Jun-20 10:30N 34°42' E 135°24'0 0.0
2017-Jun-20 10:00N 34°42' E 135°24'0 0.0
2017-Jun-20 09:30N 34°42' E 135°24'0 0.0
2017-Jun-20 09:00N 34°42' E 135°24'0 0.0
2017-Jun-20 08:30N 34°42' E 135°24'0 0.0
2017-Jun-20 08:00N 34°42' E 135°24'0 0.0
2017-Jun-20 07:30N 34°42' E 135°24'0 0.0
2017-Jun-20 07:00N 34°42' E 135°24'0 0.0
2017-Jun-20 06:30N 34°42' E 135°24'0 0.9
2017-Jun-20 06:00N 34°41' E 135°23'5 9.6
2017-Jun-20 05:30N 34°38' E 135°20'611.8
2017-Jun-20 05:00N 34°33' E 135°15'611.1
2017-Jun-20 04:26N 34°28' E 135°10'  
Track history (hours):
 
Tides and Currents Weather Stations Pressure Air Temp Water Temp Dewpoint Dewpoint Depression Visibility Wind Speed Wind Dir Waves Ship Positions

Kansai

Last reported at 2017-Jun-26 20:45 UTC. Time now 2017-Jun-28 16:02 UTC.
Position N 33°57' E 134°59'.

Length 73 m; draft 4.2 m.

Type: Cargo ship. MMSI: 431003134.

Date/timePositionNaut miles runAvg speedWind from/ knotsBaromVisibWave heightAir tempDewpointWater temp
2017-Jun-26 20:45N 33°57' E 134°59'411.4
2017-Jun-26 20:25N 34°01' E 134°59'511.2
2017-Jun-26 19:59N 34°06' E 134°58'611.7
2017-Jun-26 19:30N 34°12' E 134°58'912.2
2017-Jun-26 18:44N 34°21' E 134°60'310.5
2017-Jun-26 18:30N 34°23' E 135°00'611.8
2017-Jun-26 18:00N 34°29' E 135°02'611.2
2017-Jun-26 17:30N 34°34' E 135°04'710.6
2017-Jun-26 16:49N 34°36' E 134°56'612.1
2017-Jun-26 16:18N 34°40' E 134°50'6 0.2
2017-Jun-25 05:18N 34°37' E 134°56'4 9.5
2017-Jun-25 04:50N 34°37' E 135°01'2 7.6
2017-Jun-25 04:30N 34°36' E 135°04'5 9.2
2017-Jun-25 03:59N 34°31' E 135°04'33 0.6
2017-Jun-23 00:49N 33°59' E 135°00'411.3
2017-Jun-23 00:27N 34°03' E 135°00'510.9
2017-Jun-23 00:00N 34°08' E 134°59'510.4
2017-Jun-22 23:30N 34°13' E 134°59'1010.2
2017-Jun-22 22:32N 34°23' E 135°00'0 9.9
2017-Jun-22 22:29N 34°23' E 135°00'5 9.6
2017-Jun-22 22:00N 34°28' E 135°01'5 9.4
2017-Jun-22 21:28N 34°33' E 135°03'4 7.7
2017-Jun-22 21:00N 34°36' E 135°02'6 8.5
2017-Jun-22 20:20N 34°37' E 134°55'3 9.5
2017-Jun-22 19:59N 34°39' E 134°52'3 0.3
2017-Jun-22 09:00N 34°41' E 134°49'712.9
2017-Jun-22 08:29N 34°37' E 134°56'714.2
2017-Jun-22 08:00N 34°36' E 135°04'612.5
2017-Jun-22 07:30N 34°37' E 135°12'612.1
2017-Jun-22 07:00N 34°38' E 135°19'511.2
2017-Jun-22 06:30N 34°37' E 135°26'0 0.2
2017-Jun-22 06:00N 34°37' E 135°26'0 0.0
2017-Jun-22 05:31N 34°37' E 135°26'0 0.0
2017-Jun-22 05:00N 34°37' E 135°26'0 0.0
2017-Jun-22 04:30N 34°37' E 135°26'0 0.0
2017-Jun-22 04:01N 34°37' E 135°26'0 0.0
2017-Jun-22 03:31N 34°37' E 135°26'0 0.0
2017-Jun-22 03:01N 34°37' E 135°26'0 0.0
2017-Jun-22 02:30N 34°37' E 135°26'0 0.1
2017-Jun-22 02:00N 34°37' E 135°26'0 0.0
2017-Jun-22 01:31N 34°37' E 135°26'0 0.0
2017-Jun-22 01:01N 34°37' E 135°26'0 0.0
2017-Jun-22 00:30N 34°37' E 135°26'0 0.0
2017-Jun-22 00:01N 34°37' E 135°26'0 0.0
2017-Jun-21 23:30N 34°37' E 135°26'0 0.0
2017-Jun-21 22:57N 34°37' E 135°26'0 0.2
2017-Jun-21 22:31N 34°37' E 135°26'1 1.5
2017-Jun-21 22:01N 34°37' E 135°25'4 7.4
2017-Jun-21 21:30N 34°40' E 135°21'3 5.9
2017-Jun-21 21:00N 34°42' E 135°24'0 0.0
2017-Jun-21 20:30N 34°42' E 135°24'0 0.0
2017-Jun-21 20:00N 34°42' E 135°24'0 0.0
2017-Jun-21 19:30N 34°42' E 135°24'0 0.0
2017-Jun-21 18:59N 34°42' E 135°24'0 0.0
2017-Jun-21 18:29N 34°42' E 135°24'0 0.0
2017-Jun-21 18:00N 34°42' E 135°24'0 0.0
2017-Jun-21 17:30N 34°42' E 135°24'0 0.0
2017-Jun-21 17:00N 34°42' E 135°24'0 0.0
2017-Jun-21 16:30N 34°42' E 135°24'0 0.0
2017-Jun-21 16:00N 34°42' E 135°24'0 0.1
2017-Jun-21 15:30N 34°42' E 135°24'0 0.0
2017-Jun-21 15:00N 34°42' E 135°24'0 0.1
2017-Jun-21 14:30N 34°42' E 135°24'0 0.0
2017-Jun-21 13:30N 34°42' E 135°24'0 0.0
2017-Jun-21 13:00N 34°42' E 135°24'0 0.0
2017-Jun-21 12:30N 34°42' E 135°24'0 0.0
2017-Jun-21 12:00N 34°42' E 135°24'0 0.0
2017-Jun-21 11:30N 34°42' E 135°24'0 0.1
2017-Jun-21 11:00N 34°42' E 135°24'0 0.1
2017-Jun-21 10:30N 34°42' E 135°24'0 0.1
2017-Jun-21 10:00N 34°42' E 135°24'0 0.1
2017-Jun-21 09:30N 34°42' E 135°24'0 0.1
2017-Jun-21 09:00N 34°42' E 135°24'0 0.1
2017-Jun-21 08:28N 34°42' E 135°24'0 0.0
2017-Jun-21 08:00N 34°42' E 135°24'0 0.0
2017-Jun-21 07:30N 34°42' E 135°24'0 0.0
2017-Jun-21 06:53N 34°42' E 135°24'0 0.0
2017-Jun-21 06:30N 34°42' E 135°24'0 0.0
2017-Jun-21 05:59N 34°42' E 135°24'0 0.0
2017-Jun-21 05:30N 34°42' E 135°24'0 0.0
2017-Jun-21 05:00N 34°42' E 135°24'0 0.1
2017-Jun-21 04:30N 34°42' E 135°24'0 0.1
2017-Jun-21 04:00N 34°42' E 135°24'0 0.0
2017-Jun-21 03:30N 34°42' E 135°24'0 0.0
2017-Jun-21 03:00N 34°42' E 135°24'0 0.0
2017-Jun-21 02:30N 34°42' E 135°24'0 0.1
2017-Jun-21 02:00N 34°42' E 135°24'0 0.1
2017-Jun-21 01:30N 34°42' E 135°24'0 0.0
2017-Jun-21 01:00N 34°42' E 135°24'0 0.0
2017-Jun-21 00:30N 34°42' E 135°24'0 0.0
2017-Jun-21 00:00N 34°42' E 135°24'0 0.0
2017-Jun-20 23:30N 34°42' E 135°24'0 0.1
2017-Jun-20 23:00N 34°42' E 135°24'0 0.0
2017-Jun-20 22:30N 34°42' E 135°24'0 0.1
2017-Jun-20 22:00N 34°42' E 135°24'0 0.0
2017-Jun-20 21:30N 34°42' E 135°24'0 0.0
2017-Jun-20 21:00N 34°42' E 135°24'0 0.1
2017-Jun-20 20:30N 34°42' E 135°24'0 0.1
2017-Jun-20 20:00N 34°42' E 135°24'0 0.0
2017-Jun-20 19:30N 34°42' E 135°24'0 0.0
2017-Jun-20 19:00N 34°42' E 135°24'0 0.0
2017-Jun-20 18:30N 34°42' E 135°24'0 0.0
2017-Jun-20 18:00N 34°42' E 135°24'0 0.0
2017-Jun-20 17:30N 34°42' E 135°24'0 0.0
2017-Jun-20 17:00N 34°42' E 135°24'0 0.0
2017-Jun-20 16:30N 34°42' E 135°24'0 0.0
2017-Jun-20 16:00N 34°42' E 135°24'0 0.0
2017-Jun-20 15:30N 34°42' E 135°24'0 0.0
2017-Jun-20 15:00N 34°42' E 135°24'0 0.0
2017-Jun-20 14:00N 34°42' E 135°24'0 0.0
2017-Jun-20 13:27N 34°42' E 135°24'0 0.0
2017-Jun-20 13:00N 34°42' E 135°24'0 0.0
2017-Jun-20 12:29N 34°42' E 135°24'0 0.0
2017-Jun-20 12:00N 34°42' E 135°24'0 0.0
2017-Jun-20 11:29N 34°42' E 135°24'0 0.0
2017-Jun-20 10:59N 34°42' E 135°24'0 0.0
2017-Jun-20 10:30N 34°42' E 135°24'0 0.0
2017-Jun-20 10:00N 34°42' E 135°24'0 0.0
2017-Jun-20 09:30N 34°42' E 135°24'0 0.0
2017-Jun-20 09:00N 34°42' E 135°24'0 0.0
2017-Jun-20 08:30N 34°42' E 135°24'0 0.0
2017-Jun-20 08:00N 34°42' E 135°24'0 0.0
2017-Jun-20 07:30N 34°42' E 135°24'0 0.0
2017-Jun-20 07:00N 34°42' E 135°24'0 0.0
2017-Jun-20 06:30N 34°42' E 135°24'0 0.9
2017-Jun-20 06:00N 34°41' E 135°23'5 9.6
2017-Jun-20 05:30N 34°38' E 135°20'611.8
2017-Jun-20 05:00N 34°33' E 135°15'611.1
2017-Jun-20 04:26N 34°28' E 135°10'  

Dump ship's entire track history